Locust Gap, Pennsylvania
Current Conditions -  °F | °C
As of 1:53 AM on Friday 31 Oct 2014 (Local Time) from KSEG Reporting Station
Clear Clear  
Wind Chill: 38°   Ceiling: Unl
Heat Index: 38°   Visibility: 10mi
Dew Point: 36°   Wind: 3mph
Humidity: 93%   Direction: 350°N
Pressure: 30.03"   Gusts: NA
Location:  40.77°N, 76.44°W
Report Text: KSEG 310553Z AUTO 35003KT 10SM CLR 03/02 A3003 RMK AO2 SLP172 T00330022 10078 20033 56004
Loading
Personal Weather Stations






























Interactive Weather Map
Tropical Storm Tracking
New forecast layout! Learn more

10-Day Weather Forecast

Advertisements
Track Severe Weather on mobile